Time;durP1;ratioP1;P1;durP2;ratioP2;P2;SDS_P1;SDS_P2;PMS_P1;PMS_P2;Temp;Humidity;BMP_temperature;BMP_pressure;BME280_temperature;BME280_humidity;BME280_pressure;Samples;Min_cycle;Max_cycle;Signal;HPM_P1;HPM_P2
2021/01/01 00:01:14;;;;;;;51.97;24.90;;;2.80;99.90;;;;;;4366154;32;20429;-83
2021/01/01 00:03:41;;;;;;;52.17;23.87;;;2.80;99.90;;;;;;4365682;32;20178;-77
2021/01/01 00:06:11;;;;;;;59.73;26.57;;;2.80;99.90;;;;;;4366355;32;20405;-77
2021/01/01 00:08:38;;;;;;;49.17;23.43;;;2.80;99.90;;;;;;4365311;32;20147;-76
2021/01/01 00:11:04;;;;;;;49.00;21.73;;;2.80;99.90;;;;;;4365249;32;20149;-80
2021/01/01 00:13:31;;;;;;;52.33;23.60;;;2.80;99.90;;;;;;4365428;32;20210;-78
2021/01/01 00:15:57;;;;;;;49.20;22.93;;;2.80;99.90;;;;;;4365303;32;20148;-84
2021/01/01 00:18:24;;;;;;;57.87;23.77;;;2.70;99.90;;;;;;4365063;32;20160;-78
2021/01/01 00:20:50;;;;;;;50.80;22.90;;;2.70;99.90;;;;;;4366297;32;20151;-78
2021/01/01 00:23:17;;;;;;;49.30;23.13;;;2.70;99.90;;;;;;4365031;32;20206;-80
2021/01/01 00:25:43;;;;;;;53.47;23.70;;;2.70;99.90;;;;;;4365076;32;20153;-78
2021/01/01 00:28:10;;;;;;;54.60;24.80;;;2.70;99.90;;;;;;4366432;32;20174;-79
2021/01/01 00:30:37;;;;;;;50.17;23.83;;;2.70;99.90;;;;;;4365061;32;20246;-81
2021/01/01 00:33:03;;;;;;;52.57;24.97;;;2.70;99.90;;;;;;4365062;32;20206;-78
2021/01/01 00:35:30;;;;;;;55.10;25.03;;;2.70;99.90;;;;;;4364928;32;20172;-80
2021/01/01 00:37:56;;;;;;;56.23;24.57;;;2.70;99.90;;;;;;4364374;32;20200;-78
2021/01/01 00:40:23;;;;;;;66.10;28.43;;;2.70;99.90;;;;;;4364755;32;20164;-79
2021/01/01 00:42:49;;;;;;;61.37;26.50;;;2.70;99.90;;;;;;4364719;32;20192;-80
2021/01/01 00:45:15;;;;;;;59.07;27.23;;;2.70;99.90;;;;;;4364693;32;20214;-79
2021/01/01 00:47:49;;;;;;;58.93;27.07;;;2.70;99.90;;;;;;4364768;32;20148;-82
2021/01/01 00:50:15;;;;;;;68.60;27.73;;;2.70;99.90;;;;;;4364264;33;20195;-80
2021/01/01 00:52:42;;;;;;;60.20;28.13;;;2.70;99.90;;;;;;4366133;32;20148;-80
2021/01/01 00:55:09;;;;;;;65.20;27.67;;;2.80;99.90;;;;;;4365267;32;20413;-79
2021/01/01 00:57:36;;;;;;;61.00;27.97;;;2.80;99.90;;;;;;4364744;32;20147;-82
2021/01/01 01:00:04;;;;;;;67.07;29.87;;;2.80;99.90;;;;;;4365976;32;20156;-84
2021/01/01 01:02:31;;;;;;;73.27;32.23;;;2.80;99.90;;;;;;4366006;32;20471;-77
2021/01/01 01:04:57;;;;;;;73.03;31.53;;;2.70;99.90;;;;;;4365128;32;20156;-77
2021/01/01 01:07:24;;;;;;;84.00;34.97;;;2.70;99.90;;;;;;4364528;32;20151;-78
2021/01/01 01:09:51;;;;;;;63.27;29.70;;;2.70;99.90;;;;;;4364482;32;20204;-78
2021/01/01 01:12:19;;;;;;;62.77;27.83;;;2.70;99.90;;;;;;4364962;32;20429;-77
2021/01/01 01:14:45;;;;;;;60.73;27.87;;;2.70;99.90;;;;;;4364383;32;20156;-77
2021/01/01 01:17:12;;;;;;;62.40;28.37;;;2.80;99.90;;;;;;4363618;32;20206;-78
2021/01/01 01:19:38;;;;;;;59.90;27.43;;;2.80;99.90;;;;;;4349030;33;20161;-78
2021/01/01 01:22:05;;;;;;;64.97;29.07;;;2.80;99.90;;;;;;4350988;32;20145;-78
2021/01/01 01:24:33;;;;;;;69.90;30.23;;;2.80;99.90;;;;;;4354605;32;20223;-78
2021/01/01 01:27:00;;;;;;;86.70;35.43;;;2.80;99.90;;;;;;4357759;32;20394;-78
2021/01/01 01:29:26;;;;;;;65.07;28.70;;;2.80;99.90;;;;;;4360840;32;20244;-78
2021/01/01 01:31:52;;;;;;;59.43;26.87;;;2.80;99.90;;;;;;4364482;32;20152;-78
2021/01/01 01:34:19;;;;;;;64.47;26.87;;;2.70;99.90;;;;;;4352003;32;20203;-78
2021/01/01 01:36:45;;;;;;;87.90;37.73;;;2.80;99.90;;;;;;4361407;32;20169;-78
2021/01/01 01:39:11;;;;;;;59.40;26.50;;;2.70;99.90;;;;;;4360234;32;20152;-78
2021/01/01 01:41:38;;;;;;;64.83;28.23;;;2.70;99.90;;;;;;4358906;32;20200;-78
2021/01/01 01:44:05;;;;;;;62.57;27.97;;;2.70;99.90;;;;;;4353714;32;20183;-78
2021/01/01 01:46:41;;;;;;;60.20;26.93;;;2.70;99.90;;;;;;4364731;32;20237;-78
2021/01/01 01:49:10;;;;;;;60.00;27.00;;;2.70;99.90;;;;;;4353355;32;20172;-78
2021/01/01 01:51:38;;;;;;;62.60;26.57;;;2.70;99.90;;;;;;4350835;33;20227;-78
2021/01/01 01:54:05;;;;;;;61.60;26.40;;;2.70;99.90;;;;;;4363656;32;20161;-78
2021/01/01 01:56:34;;;;;;;63.33;28.50;;;2.70;99.90;;;;;;4364818;33;20167;-78
2021/01/01 01:59:01;;;;;;;64.30;28.00;;;2.70;99.90;;;;;;4355913;33;20375;-78
2021/01/01 02:01:28;;;;;;;63.03;27.83;;;2.60;99.90;;;;;;4358429;33;20168;-78
2021/01/01 02:03:55;;;;;;;59.70;27.60;;;2.70;99.90;;;;;;4365151;33;20174;-78
2021/01/01 02:06:22;;;;;;;60.53;27.77;;;2.70;99.90;;;;;;4363912;33;20186;-78
2021/01/01 02:08:50;;;;;;;63.73;28.77;;;2.70;99.90;;;;;;4363963;33;20144;-78
2021/01/01 02:11:17;;;;;;;59.50;27.60;;;2.60;99.90;;;;;;4363906;33;20184;-77
2021/01/01 02:13:51;;;;;;;58.50;26.67;;;2.50;99.90;;;;;;4362762;33;20179;-77
2021/01/01 02:16:21;;;;;;;75.67;32.27;;;2.50;99.90;;;;;;4365605;33;20152;-78
2021/01/01 02:18:47;;;;;;;64.80;29.33;;;2.60;99.90;;;;;;4363929;33;20237;-77
2021/01/01 02:21:16;;;;;;;63.77;28.90;;;2.60;99.90;;;;;;4363915;33;20152;-77
2021/01/01 02:23:44;;;;;;;64.60;28.73;;;2.50;99.90;;;;;;4365515;33;20160;-77
2021/01/01 02:26:11;;;;;;;67.87;29.77;;;2.50;99.90;;;;;;4362868;33;20180;-78
2021/01/01 02:28:37;;;;;;;67.33;30.23;;;2.40;99.90;;;;;;4363795;33;20198;-77
2021/01/01 02:31:05;;;;;;;101.40;44.90;;;2.50;99.90;;;;;;4363826;33;20410;-77
2021/01/01 02:33:32;;;;;;;74.30;31.47;;;2.50;99.90;;;;;;4365222;33;20449;-78
2021/01/01 02:35:59;;;;;;;70.17;31.07;;;2.50;99.90;;;;;;4363847;33;20148;-78
2021/01/01 02:38:26;;;;;;;74.03;30.77;;;2.50;99.90;;;;;;4363168;33;20458;-78
2021/01/01 02:40:52;;;;;;;69.33;30.77;;;2.60;99.90;;;;;;4363745;33;20156;-78
2021/01/01 02:43:19;;;;;;;69.63;30.73;;;2.60;99.90;;;;;;4363712;33;20148;-78
2021/01/01 02:45:46;;;;;;;67.17;30.60;;;2.70;99.90;;;;;;4364721;33;20148;-78
2021/01/01 02:48:13;;;;;;;69.20;31.00;;;2.60;99.90;;;;;;4365718;33;20175;-78
2021/01/01 02:50:41;;;;;;;66.23;30.60;;;2.70;99.90;;;;;;4363657;33;20195;-78
2021/01/01 02:53:08;;;;;;;64.07;29.07;;;2.70;99.90;;;;;;4364922;33;20156;-78
2021/01/01 02:55:34;;;;;;;64.80;29.30;;;2.70;99.90;;;;;;4365195;33;20211;-78
2021/01/01 02:58:02;;;;;;;66.07;30.13;;;2.70;99.90;;;;;;4363744;33;20408;-78
2021/01/01 03:00:29;;;;;;;69.27;30.90;;;2.70;99.90;;;;;;4364032;33;20190;-77
2021/01/01 03:02:56;;;;;;;77.77;33.30;;;2.70;99.90;;;;;;4363546;33;20187;-78
2021/01/01 03:05:23;;;;;;;83.97;35.60;;;2.70;99.90;;;;;;4363375;32;20540;-77
2021/01/01 03:07:49;;;;;;;82.17;35.07;;;2.70;99.90;;;;;;4367558;32;20194;-77
2021/01/01 03:10:16;;;;;;;89.73;35.43;;;2.60;99.90;;;;;;4366073;32;20156;-77
2021/01/01 03:12:42;;;;;;;79.80;35.53;;;2.60;99.90;;;;;;4366080;32;20148;-77
2021/01/01 03:15:09;;;;;;;83.47;36.87;;;2.70;99.90;;;;;;4365348;32;20160;-78
2021/01/01 03:17:36;;;;;;;82.23;36.17;;;2.60;99.90;;;;;;4365942;32;20182;-77
2021/01/01 03:20:05;;;;;;;87.17;37.17;;;2.60;99.90;;;;;;4366938;32;20156;-77
2021/01/01 03:22:32;;;;;;;84.60;36.73;;;2.70;99.90;;;;;;4365936;32;20415;-77
2021/01/01 03:24:59;;;;;;;85.17;36.47;;;2.60;99.90;;;;;;4365849;32;20155;-76
2021/01/01 03:27:26;;;;;;;89.50;38.23;;;2.70;99.90;;;;;;4365848;32;20405;-76
2021/01/01 03:29:52;;;;;;;87.07;35.73;;;2.60;99.90;;;;;;4366265;32;20207;-76
2021/01/01 03:32:18;;;;;;;87.60;36.23;;;2.50;99.90;;;;;;4367232;32;20191;-77
2021/01/01 03:34:45;;;;;;;78.63;34.50;;;2.50;99.90;;;;;;4365972;32;20163;-78
2021/01/01 03:37:12;;;;;;;77.00;35.10;;;2.50;99.90;;;;;;4365822;32;20373;-78
2021/01/01 03:39:38;;;;;;;80.13;34.57;;;2.50;99.90;;;;;;4365856;32;20178;-77
2021/01/01 03:42:09;;;;;;;77.80;33.77;;;2.50;99.90;;;;;;4365727;32;20218;-78
2021/01/01 03:44:36;;;;;;;80.47;32.87;;;2.50;99.90;;;;;;4365780;32;20152;-78
2021/01/01 03:47:04;;;;;;;79.77;32.70;;;2.40;99.90;;;;;;4365706;32;20247;-78
2021/01/01 03:49:30;;;;;;;74.23;33.27;;;2.40;99.90;;;;;;4365343;32;20207;-78
2021/01/01 03:51:57;;;;;;;78.93;33.90;;;2.40;99.90;;;;;;4365687;32;20172;-78
2021/01/01 03:54:23;;;;;;;76.93;33.90;;;2.40;99.90;;;;;;4366235;32;20164;-78
2021/01/01 03:56:50;;;;;;;79.87;33.27;;;2.40;99.90;;;;;;4365588;32;20174;-78
2021/01/01 03:59:16;;;;;;;81.67;33.83;;;2.40;99.90;;;;;;4364910;32;20460;-78
2021/01/01 04:01:42;;;;;;;77.53;33.03;;;2.40;99.90;;;;;;4365350;32;20194;-79
2021/01/01 04:04:09;;;;;;;79.00;34.93;;;2.30;99.90;;;;;;4366867;32;20164;-78
2021/01/01 04:06:35;;;;;;;80.23;35.50;;;2.20;99.90;;;;;;4365366;32;20203;-77
2021/01/01 04:09:02;;;;;;;115.40;49.43;;;2.10;99.90;;;;;;4365584;32;20156;-77
2021/01/01 04:11:33;;;;;;;78.40;34.43;;;2.10;99.90;;;;;;4365423;32;20149;-77
2021/01/01 04:13:59;;;;;;;85.00;35.33;;;2.20;99.90;;;;;;4365239;32;20332;-77
2021/01/01 04:16:26;;;;;;;78.93;34.00;;;2.30;99.90;;;;;;4364423;32;20168;-77
2021/01/01 04:18:52;;;;;;;73.60;31.97;;;2.20;99.90;;;;;;4365858;32;20144;-77
2021/01/01 04:21:18;;;;;;;77.80;32.97;;;2.10;99.90;;;;;;4366325;32;20198;-77
2021/01/01 04:23:45;;;;;;;77.70;32.73;;;2.10;99.90;;;;;;4365087;32;20186;-76
2021/01/01 04:26:13;;;;;;;73.03;32.13;;;2.10;99.90;;;;;;4366461;32;20187;-77
2021/01/01 04:28:39;;;;;;;82.87;34.40;;;2.00;99.90;;;;;;4365021;32;20192;-77
2021/01/01 04:31:05;;;;;;;79.83;33.83;;;2.00;99.90;;;;;;4365156;32;20148;-77
2021/01/01 04:33:32;;;;;;;76.73;32.87;;;2.10;99.90;;;;;;4364769;32;20167;-77
2021/01/01 04:35:59;;;;;;;72.77;32.37;;;2.10;99.90;;;;;;4366350;32;20204;-77
2021/01/01 04:38:25;;;;;;;81.63;33.60;;;2.20;99.90;;;;;;4364890;32;20210;-78
2021/01/01 04:40:52;;;;;;;80.43;33.20;;;2.30;99.90;;;;;;4366381;32;20144;-77
2021/01/01 04:43:19;;;;;;;77.97;32.90;;;2.30;99.90;;;;;;4365396;32;20489;-77
2021/01/01 04:45:46;;;;;;;74.47;32.13;;;2.30;99.90;;;;;;4364718;32;20198;-77
2021/01/01 04:48:12;;;;;;;78.73;32.90;;;2.40;99.90;;;;;;4364306;32;20152;-77
2021/01/01 04:50:39;;;;;;;79.07;33.27;;;2.40;99.90;;;;;;4364706;32;20217;-77
2021/01/01 04:53:08;;;;;;;74.70;31.07;;;2.50;99.90;;;;;;4364621;32;20139;-77
2021/01/01 04:55:36;;;;;;;69.90;30.00;;;2.30;99.90;;;;;;4365699;32;20358;-77
2021/01/01 04:58:03;;;;;;;73.73;30.73;;;2.40;99.90;;;;;;4365037;32;20153;-77
2021/01/01 05:00:30;;;;;;;68.37;30.57;;;2.40;99.90;;;;;;4364668;32;20198;-77
2021/01/01 05:02:57;;;;;;;73.93;31.37;;;2.40;99.90;;;;;;4364558;32;20197;-76
2021/01/01 05:05:31;;;;;;;70.43;31.57;;;2.40;99.90;;;;;;4364646;32;20156;-76
2021/01/01 05:07:58;;;;;;;79.33;31.60;;;2.40;99.90;;;;;;4364734;32;20548;-76
2021/01/01 05:10:24;;;;;;;81.30;33.73;;;2.40;99.90;;;;;;4363957;32;20167;-76
2021/01/01 05:12:51;;;;;;;74.70;32.67;;;2.40;99.90;;;;;;4364422;32;20166;-76
2021/01/01 05:15:33;;;;;;;77.80;31.83;;;2.50;99.90;;;;;;4364283;32;20199;-76
2021/01/01 05:18:00;;;;;;;72.37;31.20;;;2.50;99.90;;;;;;4364963;32;20149;-77
2021/01/01 05:20:27;;;;;;;75.37;31.03;;;2.50;99.90;;;;;;4364057;32;20398;-76
2021/01/01 05:22:58;;;;;;;73.23;30.63;;;2.50;99.90;;;;;;4364278;32;20462;-76
2021/01/01 05:25:26;;;;;;;74.30;31.37;;;2.50;99.90;;;;;;4365841;32;20363;-77
2021/01/01 05:28:00;;;;;;;75.93;31.70;;;2.60;99.90;;;;;;4363510;32;20157;-77
2021/01/01 05:30:31;;;;;;;74.93;31.37;;;2.50;99.90;;;;;;4365175;32;20200;-77
2021/01/01 05:32:59;;;;;;;67.87;31.20;;;2.50;99.90;;;;;;4364331;32;20199;-77
2021/01/01 05:35:31;;;;;;;72.43;31.50;;;2.50;99.90;;;;;;4363994;32;20477;-77
2021/01/01 05:38:15;;;;;;;75.37;32.23;;;2.50;99.90;;;;;;4364290;32;20216;-77
2021/01/01 05:40:42;;;;;;;75.17;31.63;;;2.50;99.90;;;;;;4364584;32;20161;-78
2021/01/01 05:43:22;;;;;;;72.80;31.53;;;2.40;99.90;;;;;;4364648;32;20144;-77
2021/01/01 05:45:49;;;;;;;75.03;32.37;;;2.40;99.90;;;;;;4364930;32;20461;-77
2021/01/01 05:48:17;;;;;;;72.70;32.00;;;2.50;99.90;;;;;;4364143;32;20175;-77
2021/01/01 05:50:45;;;;;;;74.43;32.77;;;2.50;99.90;;;;;;4363401;32;20164;-77
2021/01/01 05:53:17;;;;;;;73.17;31.20;;;2.50;99.90;;;;;;4365380;32;20148;-77
2021/01/01 05:55:45;;;;;;;74.27;31.97;;;2.40;99.90;;;;;;4365557;32;20144;-77
2021/01/01 05:58:18;;;;;;;75.07;31.70;;;2.40;99.90;;;;;;4363996;33;20187;-77
2021/01/01 06:00:48;;;;;;;75.37;31.40;;;2.50;99.90;;;;;;4363765;33;20191;-77
2021/01/01 06:03:28;;;;;;;71.00;31.47;;;2.40;99.90;;;;;;4364138;33;20202;-77
2021/01/01 06:05:56;;;;;;;72.83;31.50;;;2.50;99.90;;;;;;4363911;33;20455;-77
2021/01/01 06:08:28;;;;;;;71.97;31.13;;;2.50;99.90;;;;;;4365256;33;20152;-77
2021/01/01 06:11:05;;;;;;;71.27;30.17;;;2.50;99.90;;;;;;4365329;33;20148;-77
2021/01/01 06:13:34;;;;;;;72.67;31.30;;;2.40;99.90;;;;;;4364028;33;20159;-77
2021/01/01 06:16:02;;;;;;;73.67;31.47;;;2.30;99.90;;;;;;4364550;33;20155;-77
2021/01/01 06:18:30;;;;;;;71.20;30.27;;;2.30;99.90;;;;;;4363300;33;20461;-77
2021/01/01 06:21:30;;;;;;;71.97;29.93;;;2.30;99.90;;;;;;4365264;33;20149;-77
2021/01/01 06:24:00;;;;;;;70.27;29.43;;;2.30;99.90;;;;;;4363809;33;20214;-77
2021/01/01 06:26:27;;;;;;;73.53;29.63;;;2.20;99.90;;;;;;4365286;33;20227;-77
2021/01/01 06:28:54;;;;;;;73.80;30.80;;;2.10;99.90;;;;;;4350628;33;20429;-77
2021/01/01 06:31:21;;;;;;;73.93;32.30;;;2.10;99.90;;;;;;4363701;33;20144;-79
2021/01/01 06:33:47;;;;;;;73.67;30.67;;;2.20;99.90;;;;;;4363508;33;20237;-78
2021/01/01 06:36:36;;;;;;;72.80;30.80;;;2.20;99.90;;;;;;4363783;33;20470;-82
2021/01/01 06:39:03;;;;;;;67.43;29.57;;;2.30;99.90;;;;;;4363872;32;20172;-78
2021/01/01 06:41:45;;;;;;;77.50;31.13;;;2.10;99.90;;;;;;4366791;32;20148;-79
2021/01/01 06:44:32;;;;;;;74.93;30.77;;;2.20;99.90;;;;;;4366124;32;20199;-78
2021/01/01 06:46:59;;;;;;;70.57;29.77;;;2.20;99.90;;;;;;4366584;32;20200;-77
2021/01/01 06:49:35;;;;;;;73.90;30.50;;;2.30;99.90;;;;;;4366989;32;20468;-77
2021/01/01 06:52:10;;;;;;;71.93;29.63;;;2.30;99.90;;;;;;4367203;32;20167;-76
2021/01/01 06:54:54;;;;;;;76.70;31.00;;;2.20;99.90;;;;;;4367683;32;20227;-75
2021/01/01 06:57:26;;;;;;;71.10;29.33;;;2.20;99.90;;;;;;4366292;32;20167;-77
2021/01/01 06:59:53;;;;;;;77.07;31.20;;;2.20;99.90;;;;;;4361351;32;20227;-77
2021/01/01 07:02:30;;;;;;;71.10;30.27;;;2.10;99.90;;;;;;4357648;32;20554;-78
2021/01/01 07:05:01;;;;;;;77.57;31.23;;;2.00;99.90;;;;;;4361135;32;20178;-75
2021/01/01 07:07:48;;;;;;;76.70;31.23;;;1.90;99.90;;;;;;4361503;32;20172;-75
2021/01/01 07:10:35;;;;;;;73.43;31.10;;;1.90;99.90;;;;;;4357736;32;20160;-77
2021/01/01 07:13:17;;;;;;;72.83;31.83;;;2.00;99.90;;;;;;4359823;32;20470;-77
2021/01/01 07:15:44;;;;;;;73.87;29.47;;;2.00;99.90;;;;;;4356910;33;20238;-78
2021/01/01 07:18:10;;;;;;;76.30;30.77;;;2.20;99.90;;;;;;4358441;32;20510;-77
2021/01/01 07:20:40;;;;;;;73.37;31.17;;;2.20;99.90;;;;;;4351082;32;20253;-77
2021/01/01 07:23:07;;;;;;;72.97;30.60;;;2.30;99.90;;;;;;4353997;33;20207;-79
2021/01/01 07:25:38;;;;;;;72.03;29.17;;;2.30;99.90;;;;;;4360162;32;20183;-77
2021/01/01 07:28:07;;;;;;;70.17;29.70;;;2.30;99.90;;;;;;4359411;33;20227;-79
2021/01/01 07:30:35;;;;;;;72.83;30.77;;;2.20;99.90;;;;;;4353782;32;20195;-78
2021/01/01 07:33:03;;;;;;;73.97;31.27;;;2.30;99.90;;;;;;4363215;32;20176;-78
2021/01/01 07:35:30;;;;;;;73.17;31.07;;;2.30;99.90;;;;;;4360611;32;20464;-78
2021/01/01 07:37:58;;;;;;;75.57;31.30;;;2.20;99.90;;;;;;4359309;32;20552;-79
2021/01/01 07:40:25;;;;;;;74.00;30.57;;;2.20;99.90;;;;;;4359045;33;20164;-79
2021/01/01 07:42:53;;;;;;;76.07;31.50;;;2.20;99.90;;;;;;4354655;32;20520;-78
2021/01/01 07:45:20;;;;;;;74.17;30.77;;;2.20;99.90;;;;;;4351002;33;20513;-78
2021/01/01 07:47:48;;;;;;;74.73;32.20;;;2.20;99.90;;;;;;4356479;32;20183;-78
2021/01/01 07:50:16;;;;;;;74.53;30.10;;;2.20;99.90;;;;;;4365983;32;20164;-78
2021/01/01 07:52:43;;;;;;;76.53;32.00;;;2.20;99.90;;;;;;4361798;32;20228;-77
2021/01/01 07:55:11;;;;;;;78.13;31.33;;;2.20;99.90;;;;;;4360730;32;20412;-76
2021/01/01 07:57:41;;;;;;;78.50;31.40;;;2.30;99.90;;;;;;4365693;32;20243;-77
2021/01/01 08:00:08;;;;;;;71.13;30.13;;;2.30;99.90;;;;;;4365495;32;20218;-77
2021/01/01 08:02:35;;;;;;;72.57;30.33;;;2.30;99.90;;;;;;4363039;32;20160;-77
2021/01/01 08:05:03;;;;;;;78.17;32.00;;;2.30;99.90;;;;;;4365634;32;20259;-77
2021/01/01 08:07:30;;;;;;;72.77;30.60;;;2.20;99.90;;;;;;4365409;32;20178;-77
2021/01/01 08:09:56;;;;;;;69.33;29.50;;;2.20;99.90;;;;;;4365269;32;20140;-77
2021/01/01 08:12:23;;;;;;;71.93;29.50;;;2.10;99.90;;;;;;4351649;32;20153;-78
2021/01/01 08:14:53;;;;;;;76.27;30.00;;;2.10;99.90;;;;;;4351180;33;20562;-78
2021/01/01 08:17:21;;;;;;;73.17;30.17;;;2.10;99.90;;;;;;4357514;32;20225;-78
2021/01/01 08:19:48;;;;;;;72.70;30.00;;;2.00;99.90;;;;;;4363877;32;20191;-78
2021/01/01 08:22:22;;;;;;;75.20;31.10;;;2.00;99.90;;;;;;4364658;32;20148;-78
2021/01/01 08:24:53;;;;;;;74.30;30.00;;;2.00;99.90;;;;;;4366121;32;20402;-77
2021/01/01 08:27:21;;;;;;;78.17;32.07;;;2.00;99.90;;;;;;4364797;32;20176;-78
2021/01/01 08:29:49;;;;;;;72.70;29.80;;;1.80;99.90;;;;;;4363360;32;20245;-78
2021/01/01 08:32:18;;;;;;;72.93;28.37;;;1.80;99.90;;;;;;4359283;32;20191;-78
2021/01/01 08:34:52;;;;;;;78.27;30.03;;;1.80;99.90;;;;;;4361100;32;20214;-78
2021/01/01 08:37:24;;;;;;;72.40;29.40;;;1.70;99.90;;;;;;4364551;32;20172;-78
2021/01/01 08:40:05;;;;;;;76.60;30.37;;;1.70;99.90;;;;;;4359633;32;20187;-78
2021/01/01 08:42:37;;;;;;;68.80;27.60;;;1.70;99.90;;;;;;4357626;32;20160;-78
2021/01/01 08:45:06;;;;;;;73.03;29.90;;;1.70;99.90;;;;;;4356889;32;20160;-77
2021/01/01 08:47:48;;;;;;;70.17;28.23;;;1.70;99.90;;;;;;4355596;33;20196;-77
2021/01/01 08:50:25;;;;;;;74.23;28.37;;;1.70;99.90;;;;;;4353081;33;20160;-77
2021/01/01 08:52:58;;;;;;;73.93;29.33;;;1.80;99.90;;;;;;4351404;33;20224;-77
2021/01/01 08:55:25;;;;;;;71.33;27.80;;;1.50;99.90;;;;;;4349532;33;20160;-77
2021/01/01 08:58:08;;;;;;;66.73;27.33;;;1.30;99.90;;;;;;4349287;33;20427;-77
2021/01/01 09:00:36;;;;;;;70.20;28.33;;;1.40;99.90;;;;;;4362261;32;20176;-77
2021/01/01 09:03:04;;;;;;;71.53;27.97;;;1.40;99.90;;;;;;4364163;32;20176;-77
2021/01/01 09:05:32;;;;;;;63.63;25.43;;;1.40;99.90;;;;;;4365104;32;20412;-78
2021/01/01 09:08:20;;;;;;;67.10;25.87;;;1.40;99.90;;;;;;4363784;32;20172;-77
2021/01/01 09:10:48;;;;;;;60.67;24.80;;;1.30;99.90;;;;;;4365793;32;20152;-77
2021/01/01 09:13:30;;;;;;;57.37;24.53;;;1.30;99.90;;;;;;4364387;32;20148;-77
2021/01/01 09:16:11;;;;;;;61.13;24.90;;;1.30;99.90;;;;;;4365711;32;20432;-77
2021/01/01 09:21:27;;;;;;;60.23;24.80;;;1.30;99.90;;;;;;4363985;32;20210;-77
2021/01/01 09:23:54;;;;;;;62.73;24.73;;;1.30;99.90;;;;;;4365453;32;20200;-78
2021/01/01 09:26:25;;;;;;;69.20;26.20;;;1.20;99.90;;;;;;4363450;32;20198;-77
2021/01/01 09:29:09;;;;;;;60.17;24.03;;;1.30;99.90;;;;;;4364271;32;20178;-78
2021/01/01 09:31:37;;;;;;;58.93;24.17;;;1.50;99.90;;;;;;4364677;32;20178;-78
2021/01/01 09:34:08;;;;;;;60.67;24.10;;;1.40;99.90;;;;;;4365457;32;20202;-78
2021/01/01 09:36:50;;;;;;;52.83;22.77;;;1.40;99.90;;;;;;4365038;32;20164;-78
2021/01/01 09:39:16;;;;;;;62.73;24.90;;;1.40;99.90;;;;;;4365822;32;20207;-78
2021/01/01 09:41:48;;;;;;;55.80;22.63;;;1.50;99.90;;;;;;4365376;32;20175;-78
2021/01/01 09:44:14;;;;;;;56.03;22.87;;;1.50;99.90;;;;;;4363608;32;20199;-78
2021/01/01 09:46:43;;;;;;;53.37;22.40;;;1.40;99.90;;;;;;4363677;32;20187;-79
2021/01/01 09:49:10;;;;;;;50.50;21.50;;;1.30;99.90;;;;;;4364315;32;20172;-79
2021/01/01 09:51:39;;;;;;;54.57;22.63;;;1.20;99.90;;;;;;4363702;32;20184;-79
2021/01/01 09:54:06;;;;;;;49.03;20.90;;;1.20;99.90;;;;;;4363544;32;20175;-79
2021/01/01 09:56:36;;;;;;;51.77;21.00;;;1.30;99.90;;;;;;4362296;32;20386;-80
2021/01/01 09:59:03;;;;;;;48.33;21.30;;;1.30;99.90;;;;;;4363355;32;20520;-79
2021/01/01 10:01:31;;;;;;;50.67;20.80;;;1.20;99.90;;;;;;4356829;33;20415;-79
2021/01/01 10:03:58;;;;;;;55.30;22.80;;;1.20;99.90;;;;;;4354599;33;20231;-78
2021/01/01 10:06:26;;;;;;;51.07;19.77;;;1.20;99.90;;;;;;4350598;33;20152;-79
2021/01/01 10:08:57;;;;;;;47.77;19.13;;;1.20;99.90;;;;;;4353629;33;20161;-78
2021/01/01 10:11:23;;;;;;;47.33;20.27;;;1.10;99.90;;;;;;4350984;33;20412;-79
2021/01/01 10:13:50;;;;;;;50.87;20.50;;;1.20;99.90;;;;;;4349143;33;20183;-79
2021/01/01 10:16:16;;;;;;;47.70;19.20;;;1.30;99.90;;;;;;4351187;33;20175;-79
2021/01/01 10:18:43;;;;;;;46.77;19.50;;;1.30;99.90;;;;;;4353807;33;20167;-78
2021/01/01 10:21:10;;;;;;;46.60;18.13;;;1.30;99.90;;;;;;4366962;32;20186;-78
2021/01/01 10:23:37;;;;;;;44.83;17.10;;;1.30;99.90;;;;;;4366762;32;20174;-78
2021/01/01 10:26:03;;;;;;;42.37;18.60;;;1.40;99.90;;;;;;4366789;32;20156;-77
2021/01/01 10:28:30;;;;;;;41.97;17.43;;;1.30;99.90;;;;;;4368082;32;20167;-78
2021/01/01 10:30:56;;;;;;;44.57;17.60;;;1.30;99.90;;;;;;4366370;32;20160;-77
2021/01/01 10:33:23;;;;;;;44.27;17.97;;;1.10;99.90;;;;;;4366382;32;20156;-78
2021/01/01 10:35:50;;;;;;;41.23;16.50;;;0.90;99.90;;;;;;4366989;32;20440;-78
2021/01/01 10:38:16;;;;;;;47.40;18.37;;;0.80;99.90;;;;;;4367648;32;20235;-78
2021/01/01 10:40:43;;;;;;;42.30;17.97;;;0.80;99.90;;;;;;4367137;32;20152;-78
2021/01/01 10:43:09;;;;;;;46.33;18.53;;;0.80;99.90;;;;;;4366559;32;20177;-77
2021/01/01 10:45:36;;;;;;;49.97;19.13;;;0.90;99.90;;;;;;4366555;32;20190;-76
2021/01/01 10:48:02;;;;;;;46.40;17.97;;;1.00;99.90;;;;;;4366412;32;20144;-75
2021/01/01 10:50:29;;;;;;;46.00;18.70;;;1.20;99.90;;;;;;4375539;32;20168;-80
2021/01/01 10:52:55;;;;;;;44.77;18.50;;;1.30;99.90;;;;;;4374936;32;20499;-78
2021/01/01 10:55:22;;;;;;;50.80;19.27;;;1.40;99.90;;;;;;4367772;32;20203;-75
2021/01/01 10:57:48;;;;;;;53.87;21.60;;;1.40;99.90;;;;;;4366027;32;20175;-75
2021/01/01 11:00:15;;;;;;;45.23;18.67;;;1.30;99.90;;;;;;4367404;32;20203;-76
2021/01/01 11:02:41;;;;;;;48.00;18.73;;;1.20;99.90;;;;;;4366645;32;20191;-77
2021/01/01 11:05:08;;;;;;;45.80;17.60;;;1.20;99.90;;;;;;4367574;32;20462;-76
2021/01/01 11:07:35;;;;;;;46.07;18.83;;;1.20;99.90;;;;;;4366837;32;20183;-77
2021/01/01 11:10:02;;;;;;;44.70;18.37;;;1.20;99.90;;;;;;4366145;32;20140;-77
2021/01/01 11:12:30;;;;;;;46.40;18.67;;;1.20;99.90;;;;;;4366152;32;20182;-77
2021/01/01 12:21:54;;;;;;;37.73;14.47;;;0.80;99.90;;;;;;4333618;33;20196;-78
2021/01/01 12:24:36;;;;;;;38.50;15.20;;;0.80;99.90;;;;;;4335320;33;20407;-78
2021/01/01 12:27:03;;;;;;;37.30;14.57;;;0.90;99.90;;;;;;4333360;33;20552;-78
2021/01/01 12:29:30;;;;;;;40.83;15.50;;;0.90;99.90;;;;;;4332775;33;20207;-78
2021/01/01 12:31:57;;;;;;;37.17;15.33;;;0.90;99.90;;;;;;4334838;33;20164;-78
2021/01/01 12:34:32;;;;;;;42.23;15.50;;;0.90;99.90;;;;;;4347366;33;20189;-77
2021/01/01 12:36:58;;;;;;;41.23;16.60;;;1.00;99.90;;;;;;4364311;32;20445;-77
2021/01/01 12:39:25;;;;;;;42.23;15.90;;;1.00;99.90;;;;;;4364954;32;20459;-77
2021/01/01 12:41:51;;;;;;;38.93;15.97;;;1.20;99.90;;;;;;4364927;32;20143;-77
2021/01/01 12:44:18;;;;;;;38.40;15.53;;;1.20;99.90;;;;;;4365157;32;20184;-76
2021/01/01 12:46:44;;;;;;;39.47;14.80;;;1.10;99.90;;;;;;4365157;32;20195;-77
2021/01/01 12:49:11;;;;;;;39.13;15.60;;;1.00;99.90;;;;;;4364600;32;20148;-77
2021/01/01 12:51:37;;;;;;;38.87;15.40;;;1.10;99.90;;;;;;4364724;32;20144;-76
2021/01/01 12:54:04;;;;;;;37.50;14.70;;;0.90;99.90;;;;;;4364664;32;20458;-77
2021/01/01 12:56:30;;;;;;;33.20;14.40;;;0.80;99.90;;;;;;4364785;32;20152;-77
2021/01/01 12:58:57;;;;;;;39.43;15.60;;;0.70;99.90;;;;;;4366318;32;20199;-77
2021/01/01 13:01:24;;;;;;;36.50;13.80;;;0.80;99.90;;;;;;4363941;32;20193;-77
2021/01/01 13:03:50;;;;;;;35.93;14.40;;;0.90;99.90;;;;;;4365467;32;20517;-78
2021/01/01 13:06:17;;;;;;;28.43;11.80;;;0.80;99.90;;;;;;4365781;32;20444;-76
2021/01/01 13:08:44;;;;;;;32.33;12.33;;;0.70;99.90;;;;;;4364463;32;20172;-77
2021/01/01 13:11:10;;;;;;;30.60;12.30;;;0.60;99.90;;;;;;4365971;32;20143;-78
2021/01/01 13:13:36;;;;;;;29.40;11.77;;;0.60;99.90;;;;;;4364444;32;20454;-78
2021/01/01 13:16:03;;;;;;;27.80;11.60;;;0.40;99.90;;;;;;4364115;32;20410;-76
2021/01/01 13:18:31;;;;;;;28.40;11.43;;;0.30;99.90;;;;;;4364417;32;20195;-77
2021/01/01 13:20:58;;;;;;;32.33;11.90;;;0.20;99.90;;;;;;4364565;32;20180;-78
2021/01/01 13:23:25;;;;;;;33.13;12.70;;;0.20;99.90;;;;;;4364314;32;20143;-78
2021/01/01 13:25:51;;;;;;;34.43;12.57;;;0.20;99.90;;;;;;4364323;32;20178;-77
2021/01/01 13:28:20;;;;;;;34.03;13.50;;;0.20;99.90;;;;;;4365733;32;20160;-77
2021/01/01 13:30:46;;;;;;;36.63;13.20;;;0.20;99.90;;;;;;4351145;33;20159;-77
2021/01/01 13:33:12;;;;;;;32.90;13.03;;;0.40;99.90;;;;;;4365105;32;20449;-78
2021/01/01 13:35:39;;;;;;;35.10;14.40;;;0.50;99.90;;;;;;4365576;32;20198;-78
2021/01/01 13:38:05;;;;;;;33.47;13.40;;;0.60;99.90;;;;;;4365931;32;20148;-78
2021/01/01 13:40:31;;;;;;;35.97;13.40;;;0.60;99.90;;;;;;4364130;32;20505;-78
2021/01/01 13:42:58;;;;;;;34.03;12.47;;;0.70;99.90;;;;;;4364239;32;20444;-77
2021/01/01 13:45:24;;;;;;;30.83;12.17;;;0.70;99.90;;;;;;4364159;32;20548;-78
2021/01/01 13:47:51;;;;;;;36.77;12.53;;;0.60;99.90;;;;;;4364172;32;20175;-78
2021/01/01 13:50:17;;;;;;;36.00;12.53;;;0.30;99.90;;;;;;4363365;32;20163;-78
2021/01/01 13:52:43;;;;;;;33.37;12.07;;;0.40;99.90;;;;;;4364199;32;20187;-78